Time;durP1;ratioP1;P1;durP2;ratioP2;P2;SDS_P1;SDS_P2;PMS_P1;PMS_P2;Temp;Humidity;BMP_temperature;BMP_pressure;BME280_temperature;BME280_humidity;BME280_pressure;Samples;Min_cycle;Max_cycle;Signal;HPM_P1;HPM_P2
2024/01/16 00:02:21;;;;;;;1.77;1.60;;;20.70;53.60;;;;;;5069803;28;20194;-70
2024/01/16 00:04:47;;;;;;;2.33;1.73;;;20.70;53.60;;;;;;5069703;28;20247;-69
2024/01/16 00:07:13;;;;;;;2.23;1.67;;;20.70;53.50;;;;;;5069790;28;20167;-69
2024/01/16 00:09:38;;;;;;;2.20;1.87;;;20.70;53.60;;;;;;5069653;28;20239;-69
2024/01/16 00:12:04;;;;;;;2.20;1.80;;;20.70;53.60;;;;;;5069926;28;20183;-71
2024/01/16 00:14:30;;;;;;;2.00;1.70;;;20.70;53.60;;;;;;5051488;28;20274;-71
2024/01/16 00:16:55;;;;;;;1.50;1.40;;;20.70;53.60;;;;;;5069516;28;20524;-70
2024/01/16 00:19:21;;;;;;;2.80;2.07;;;20.70;53.60;;;;;;5069548;28;20281;-69
2024/01/16 00:21:47;;;;;;;2.73;1.70;;;20.60;53.60;;;;;;5069654;28;20848;-70
2024/01/16 00:24:13;;;;;;;2.00;1.70;;;20.70;53.70;;;;;;5069761;28;20745;-70
2024/01/16 00:26:39;;;;;;;1.60;1.30;;;20.70;53.70;;;;;;5069744;28;20634;-70
2024/01/16 00:29:05;;;;;;;1.80;1.40;;;20.70;53.70;;;;;;5071641;28;20433;-70
2024/01/16 00:31:30;;;;;;;2.67;1.83;;;20.70;53.70;;;;;;5073429;28;20657;-70
2024/01/16 00:33:56;;;;;;;2.13;1.50;;;20.60;53.60;;;;;;5073214;28;20675;-70
2024/01/16 00:36:21;;;;;;;1.70;1.37;;;20.60;53.60;;;;;;5073104;28;20251;-70
2024/01/16 00:38:47;;;;;;;2.53;1.70;;;20.60;53.70;;;;;;5072951;28;20251;-70
2024/01/16 00:41:16;;;;;;;1.77;1.47;;;20.70;53.70;;;;;;5073026;28;20175;-69
2024/01/16 00:43:43;;;;;;;1.83;1.60;;;20.60;53.70;;;;;;5072892;28;20589;-70
2024/01/16 00:46:09;;;;;;;2.50;1.67;;;20.70;53.70;;;;;;5054902;28;20420;-72
2024/01/16 00:48:34;;;;;;;2.33;1.60;;;20.60;53.60;;;;;;5072827;28;20536;-71
2024/01/16 00:51:00;;;;;;;2.30;1.50;;;20.60;53.70;;;;;;5072842;28;20200;-71
2024/01/16 00:53:28;;;;;;;1.73;1.47;;;20.60;53.70;;;;;;5072754;28;20212;-69
2024/01/16 00:55:54;;;;;;;2.83;1.77;;;20.60;53.70;;;;;;5072760;28;20182;-70
2024/01/16 00:58:21;;;;;;;2.10;1.90;;;20.60;53.70;;;;;;5072616;28;20993;-68
2024/01/16 01:00:47;;;;;;;2.33;1.93;;;20.60;53.70;;;;;;5072684;28;20178;-70
2024/01/16 01:03:13;;;;;;;1.70;1.40;;;20.60;53.70;;;;;;5054534;28;21045;-70
2024/01/16 01:05:38;;;;;;;2.40;1.87;;;20.60;53.60;;;;;;5072653;28;20174;-71
2024/01/16 01:08:04;;;;;;;2.43;1.60;;;20.60;53.60;;;;;;5072503;28;20174;-70
2024/01/16 01:10:30;;;;;;;2.20;1.77;;;20.60;53.60;;;;;;5072354;28;20194;-70
2024/01/16 01:12:56;;;;;;;1.73;1.43;;;20.60;53.60;;;;;;5072464;28;20416;-70
2024/01/16 01:15:21;;;;;;;1.93;1.40;;;20.60;53.60;;;;;;5072316;28;20182;-69
2024/01/16 01:17:50;;;;;;;2.30;1.40;;;20.60;53.60;;;;;;5072274;28;20201;-70
2024/01/16 01:20:18;;;;;;;1.80;1.47;;;20.60;53.60;;;;;;5072543;28;20277;-70
2024/01/16 01:22:44;;;;;;;1.50;1.30;;;20.60;53.60;;;;;;5072221;28;20608;-70
2024/01/16 01:25:11;;;;;;;1.87;1.60;;;20.60;53.60;;;;;;5072496;28;20808;-70
2024/01/16 01:27:38;;;;;;;1.77;1.20;;;20.60;53.60;;;;;;5072495;28;20492;-71
2024/01/16 01:30:04;;;;;;;1.50;1.30;;;20.60;53.70;;;;;;5072019;28;20436;-69
2024/01/16 01:32:29;;;;;;;1.60;1.37;;;20.60;53.70;;;;;;5072129;28;20911;-70
2024/01/16 01:34:55;;;;;;;2.23;1.60;;;20.60;53.70;;;;;;5072139;28;20404;-69
2024/01/16 01:37:20;;;;;;;1.53;1.43;;;20.60;53.70;;;;;;5072000;28;20209;-69
2024/01/16 01:39:46;;;;;;;1.70;1.50;;;20.50;53.60;;;;;;5071510;28;20544;-70
2024/01/16 01:42:11;;;;;;;1.87;1.20;;;20.50;53.60;;;;;;5072026;28;20254;-69
2024/01/16 01:44:37;;;;;;;2.70;1.70;;;20.60;53.70;;;;;;5071791;28;20197;-70
2024/01/16 01:47:03;;;;;;;1.60;1.30;;;20.60;53.70;;;;;;5071824;28;20170;-70
2024/01/16 01:49:31;;;;;;;2.40;1.60;;;20.60;53.70;;;;;;5071699;28;20190;-70
2024/01/16 01:51:57;;;;;;;2.00;1.43;;;20.60;53.70;;;;;;5071697;28;20408;-70
2024/01/16 01:54:24;;;;;;;2.03;1.53;;;20.50;53.70;;;;;;5071722;28;20417;-70
2024/01/16 01:56:50;;;;;;;1.80;1.20;;;20.60;53.80;;;;;;5071654;28;20185;-70
2024/01/16 01:59:21;;;;;;;3.20;1.40;;;20.60;53.70;;;;;;5071482;28;20519;-70
2024/01/16 02:01:48;;;;;;;2.00;1.50;;;20.60;53.70;;;;;;5053683;28;20412;-68
2024/01/16 02:04:18;;;;;;;1.50;1.13;;;20.60;53.70;;;;;;5071404;28;20814;-69
2024/01/16 02:06:44;;;;;;;2.17;1.60;;;20.60;53.70;;;;;;5071403;28;20409;-70
2024/01/16 02:09:13;;;;;;;3.33;1.37;;;20.50;53.70;;;;;;5071247;28;20436;-69
2024/01/16 02:11:39;;;;;;;2.90;1.20;;;20.50;53.60;;;;;;5071278;28;20640;-70
2024/01/16 02:14:05;;;;;;;1.40;1.30;;;20.50;53.60;;;;;;5071217;28;20456;-70
2024/01/16 02:16:39;;;;;;;2.07;1.10;;;20.50;53.60;;;;;;5071007;28;20482;-71
2024/01/16 02:19:07;;;;;;;2.20;1.60;;;20.50;53.60;;;;;;5071085;28;20208;-68
2024/01/16 02:21:38;;;;;;;2.23;1.67;;;20.50;53.60;;;;;;5071101;28;20764;-70
2024/01/16 02:24:05;;;;;;;1.47;1.00;;;20.50;53.60;;;;;;5071021;28;20531;-70
2024/01/16 02:26:31;;;;;;;1.80;1.40;;;20.50;53.60;;;;;;5071016;28;20785;-70
2024/01/16 02:28:57;;;;;;;1.83;1.43;;;20.50;53.60;;;;;;5070928;28;20425;-70
2024/01/16 02:31:22;;;;;;;2.30;1.40;;;20.50;53.60;;;;;;5070926;28;20976;-68
2024/01/16 02:33:48;;;;;;;1.50;1.30;;;20.50;54.20;;;;;;5052800;28;20178;-70
2024/01/16 02:36:14;;;;;;;1.60;1.47;;;20.50;53.60;;;;;;5070802;28;20185;-70
2024/01/16 02:38:39;;;;;;;2.10;1.53;;;20.50;53.60;;;;;;5070674;28;20716;-71
2024/01/16 02:41:06;;;;;;;1.53;1.40;;;20.50;53.70;;;;;;5070765;28;20711;-70
2024/01/16 02:43:32;;;;;;;1.90;1.50;;;20.50;53.70;;;;;;5070618;28;20209;-70
2024/01/16 02:45:58;;;;;;;1.53;1.23;;;20.50;53.70;;;;;;5070624;28;20790;-70
2024/01/16 02:48:23;;;;;;;1.60;1.40;;;20.50;53.70;;;;;;5070593;28;20257;-70
2024/01/16 02:50:49;;;;;;;2.17;1.40;;;20.50;53.70;;;;;;5069800;28;20162;-70
2024/01/16 02:53:15;;;;;;;1.63;1.20;;;20.50;53.70;;;;;;5070560;28;20178;-69
2024/01/16 02:55:40;;;;;;;1.67;1.40;;;20.50;53.70;;;;;;5070464;28;20249;-69
2024/01/16 02:58:06;;;;;;;1.40;1.00;;;20.50;53.70;;;;;;5070519;28;20178;-70
2024/01/16 03:00:32;;;;;;;1.77;1.60;;;20.50;53.70;;;;;;5070373;28;20198;-70
2024/01/16 03:02:58;;;;;;;1.30;1.20;;;20.50;53.70;;;;;;5035636;28;20224;-69
2024/01/16 03:05:24;;;;;;;2.33;1.33;;;20.50;53.70;;;;;;5070561;28;20193;-70
2024/01/16 03:07:49;;;;;;;1.97;1.40;;;20.50;53.70;;;;;;5070266;28;20413;-70
2024/01/16 03:10:15;;;;;;;1.70;1.37;;;20.50;53.70;;;;;;5070194;28;20198;-69
2024/01/16 03:12:41;;;;;;;1.80;1.30;;;20.50;53.70;;;;;;5070510;28;20189;-70
2024/01/16 03:15:06;;;;;;;1.63;1.20;;;20.50;53.70;;;;;;5070267;28;20178;-70
2024/01/16 03:17:32;;;;;;;1.90;1.77;;;20.50;53.70;;;;;;5052009;28;20551;-70
2024/01/16 03:19:58;;;;;;;1.43;1.30;;;20.50;53.70;;;;;;5070155;28;20280;-70
2024/01/16 03:22:24;;;;;;;1.70;1.50;;;20.40;53.60;;;;;;5070528;28;20184;-70
2024/01/16 03:24:50;;;;;;;1.63;1.20;;;20.50;53.70;;;;;;5070280;28;20554;-70
2024/01/16 03:27:16;;;;;;;1.50;1.30;;;20.50;53.70;;;;;;5070036;28;20455;-69
2024/01/16 03:29:41;;;;;;;2.13;1.30;;;20.50;53.70;;;;;;5070264;28;20507;-70
2024/01/16 03:32:08;;;;;;;1.87;1.40;;;20.50;53.70;;;;;;5070144;28;20175;-68
2024/01/16 03:34:33;;;;;;;1.57;1.13;;;20.40;53.60;;;;;;5070051;28;20223;-70
2024/01/16 03:36:59;;;;;;;2.33;1.33;;;20.50;53.70;;;;;;5069982;28;20504;-70
2024/01/16 03:39:24;;;;;;;2.20;1.40;;;20.40;53.70;;;;;;5052028;28;20206;-68
2024/01/16 03:41:50;;;;;;;1.77;1.17;;;20.40;53.70;;;;;;5051994;28;20178;-69
2024/01/16 03:44:15;;;;;;;1.73;1.20;;;20.40;53.60;;;;;;5069835;28;20210;-69
2024/01/16 03:46:41;;;;;;;1.70;1.30;;;20.40;53.60;;;;;;5069914;28;20174;-70
2024/01/16 03:49:07;;;;;;;1.60;1.50;;;20.40;53.70;;;;;;5051914;28;20770;-68
2024/01/16 03:51:33;;;;;;;1.63;1.17;;;20.40;53.60;;;;;;5070027;28;20268;-69
2024/01/16 03:53:58;;;;;;;1.80;1.43;;;20.40;53.70;;;;;;5069990;28;20690;-70
2024/01/16 03:56:24;;;;;;;1.40;1.10;;;20.40;53.70;;;;;;5069982;28;20423;-69
2024/01/16 03:58:49;;;;;;;1.53;1.10;;;20.40;53.70;;;;;;5069795;28;20201;-68
2024/01/16 04:01:15;;;;;;;1.50;1.20;;;20.40;53.70;;;;;;5069827;28;20179;-69
2024/01/16 04:03:41;;;;;;;2.03;1.50;;;20.40;53.70;;;;;;5073136;28;20248;-70
2024/01/16 04:06:17;;;;;;;1.60;1.37;;;20.40;53.70;;;;;;5073704;28;20178;-68
2024/01/16 04:08:42;;;;;;;1.33;1.20;;;20.40;53.70;;;;;;5073623;28;20685;-68
2024/01/16 04:11:13;;;;;;;1.20;1.03;;;20.40;53.70;;;;;;5073610;28;20507;-69
2024/01/16 04:13:39;;;;;;;1.60;1.20;;;20.40;53.70;;;;;;5073595;28;20240;-69
2024/01/16 04:16:04;;;;;;;1.77;1.27;;;20.40;53.70;;;;;;5073461;28;20420;-69
2024/01/16 04:18:37;;;;;;;1.43;1.17;;;20.40;53.70;;;;;;5073378;28;20247;-71
2024/01/16 04:21:03;;;;;;;1.33;1.20;;;20.40;53.70;;;;;;5073452;28;20404;-69
2024/01/16 04:23:28;;;;;;;1.60;1.37;;;20.40;53.70;;;;;;5073284;28;20462;-69
2024/01/16 04:25:54;;;;;;;1.70;1.30;;;20.40;53.70;;;;;;5073262;28;20413;-70
2024/01/16 04:28:20;;;;;;;1.77;1.10;;;20.40;53.60;;;;;;5073141;28;20170;-70
2024/01/16 04:30:45;;;;;;;1.40;1.20;;;20.40;53.70;;;;;;5073164;28;20175;-69
2024/01/16 04:33:11;;;;;;;2.77;1.40;;;20.40;53.60;;;;;;5073109;28;20182;-69
2024/01/16 04:35:36;;;;;;;1.83;1.23;;;20.40;53.60;;;;;;5073120;28;20210;-70
2024/01/16 04:38:03;;;;;;;1.80;1.40;;;20.40;53.60;;;;;;5072956;28;20189;-69
2024/01/16 04:40:28;;;;;;;2.40;1.43;;;20.40;53.60;;;;;;5073126;28;20205;-69
2024/01/16 04:42:54;;;;;;;1.83;1.37;;;20.40;53.60;;;;;;5072858;28;20412;-69
2024/01/16 04:45:19;;;;;;;1.50;1.10;;;20.40;53.60;;;;;;5073016;28;20178;-69
2024/01/16 04:47:45;;;;;;;1.43;1.33;;;20.40;53.60;;;;;;5072786;28;20182;-70
2024/01/16 04:50:11;;;;;;;1.80;1.20;;;20.40;53.60;;;;;;5072837;28;20292;-69
2024/01/16 04:52:37;;;;;;;1.53;1.10;;;20.40;53.70;;;;;;5054726;28;20182;-70
2024/01/16 04:55:03;;;;;;;1.87;1.27;;;20.30;53.60;;;;;;5072977;28;20416;-70
2024/01/16 04:57:28;;;;;;;1.60;1.00;;;20.30;53.60;;;;;;5072682;28;20178;-70
2024/01/16 04:59:54;;;;;;;2.53;1.30;;;20.40;53.60;;;;;;5072614;28;20931;-69
2024/01/16 05:02:20;;;;;;;1.40;1.10;;;20.30;53.60;;;;;;5054540;28;20220;-70
2024/01/16 05:04:49;;;;;;;1.73;1.40;;;20.40;53.70;;;;;;5054424;28;20208;-69
2024/01/16 05:07:15;;;;;;;1.40;1.07;;;20.30;53.60;;;;;;5072412;28;20174;-70
2024/01/16 05:09:40;;;;;;;1.50;1.33;;;20.30;53.60;;;;;;5037699;28;20474;-70
2024/01/16 05:12:06;;;;;;;1.40;1.10;;;20.30;53.60;;;;;;5054351;28;20957;-69
2024/01/16 05:14:32;;;;;;;1.20;1.00;;;20.40;53.70;;;;;;5071531;28;20170;-70
2024/01/16 05:16:57;;;;;;;1.60;1.20;;;20.40;53.70;;;;;;5054086;28;20194;-70
2024/01/16 05:19:23;;;;;;;1.40;1.20;;;20.40;53.70;;;;;;5072253;28;20636;-70
2024/01/16 05:21:49;;;;;;;1.60;1.50;;;20.40;53.70;;;;;;5054025;28;20178;-70
2024/01/16 05:24:14;;;;;;;1.40;1.00;;;20.40;53.70;;;;;;5072462;28;20209;-69
2024/01/16 05:26:40;;;;;;;1.40;1.13;;;20.40;53.70;;;;;;5072311;28;20197;-69
2024/01/16 05:29:06;;;;;;;1.97;1.50;;;20.40;53.60;;;;;;5053995;28;20232;-70
2024/01/16 05:31:32;;;;;;;2.03;1.40;;;20.40;53.60;;;;;;5037550;28;20166;-70
2024/01/16 05:33:58;;;;;;;1.93;1.20;;;20.40;53.60;;;;;;5072184;28;20775;-69
2024/01/16 05:36:24;;;;;;;1.30;1.20;;;20.40;53.60;;;;;;5053673;28;20648;-69
2024/01/16 05:38:50;;;;;;;1.50;1.17;;;20.40;53.60;;;;;;5054266;28;20668;-70
2024/01/16 05:41:16;;;;;;;1.60;1.37;;;20.40;53.60;;;;;;5053744;28;20425;-69
2024/01/16 05:43:41;;;;;;;2.00;1.30;;;20.40;53.60;;;;;;5053700;28;20202;-70
2024/01/16 05:46:07;;;;;;;1.30;1.10;;;20.40;53.50;;;;;;5072013;28;20197;-70
2024/01/16 05:48:32;;;;;;;1.30;1.10;;;20.40;53.80;;;;;;5053621;28;20713;-67
2024/01/16 05:50:58;;;;;;;1.73;1.40;;;20.40;53.60;;;;;;5037478;28;20176;-67
2024/01/16 05:53:24;;;;;;;1.43;1.27;;;20.40;53.60;;;;;;5072089;28;20190;-69
2024/01/16 05:55:49;;;;;;;1.30;1.20;;;20.40;53.60;;;;;;5053759;28;20181;-71
2024/01/16 05:58:15;;;;;;;2.10;1.57;;;20.40;53.60;;;;;;5053543;28;20197;-67
2024/01/16 06:00:40;;;;;;;1.20;1.10;;;20.40;53.60;;;;;;5071699;28;20540;-68
2024/01/16 06:03:06;;;;;;;1.40;1.20;;;20.40;53.60;;;;;;5071408;28;20685;-68
2024/01/16 06:05:32;;;;;;;1.40;1.00;;;20.40;53.60;;;;;;5071028;28;20174;-68
2024/01/16 06:07:57;;;;;;;1.40;1.10;;;20.40;53.60;;;;;;5053480;28;20174;-69
2024/01/16 06:10:23;;;;;;;1.70;1.40;;;20.40;53.70;;;;;;5071921;28;20696;-69
2024/01/16 06:12:49;;;;;;;1.17;1.00;;;20.40;53.60;;;;;;5053905;28;20209;-69
2024/01/16 06:15:14;;;;;;;1.20;1.07;;;20.40;53.60;;;;;;5037574;28;20638;-69
2024/01/16 06:17:40;;;;;;;1.43;1.00;;;20.40;53.60;;;;;;5071868;28;20680;-69
2024/01/16 06:20:06;;;;;;;1.23;0.93;;;20.40;53.60;;;;;;5037143;28;20213;-69
2024/01/16 06:22:32;;;;;;;1.30;1.10;;;20.40;53.60;;;;;;5071613;28;20163;-69
2024/01/16 06:24:57;;;;;;;1.60;1.30;;;20.40;53.60;;;;;;5071410;28;20448;-69
2024/01/16 06:27:23;;;;;;;2.60;1.53;;;20.40;53.60;;;;;;5053734;28;20185;-69
2024/01/16 06:29:50;;;;;;;1.67;1.30;;;20.40;53.70;;;;;;5053593;28;20198;-70
2024/01/16 06:32:16;;;;;;;1.90;1.20;;;20.50;53.80;;;;;;5071484;28;20177;-68
2024/01/16 06:34:42;;;;;;;1.20;1.00;;;20.50;53.80;;;;;;5036955;28;20413;-69
2024/01/16 06:37:08;;;;;;;1.70;1.20;;;20.50;53.80;;;;;;5071414;28;20193;-70
2024/01/16 06:39:34;;;;;;;1.20;1.10;;;20.50;53.80;;;;;;5053334;28;20649;-69
2024/01/16 06:42:00;;;;;;;1.33;1.17;;;20.50;53.80;;;;;;5053462;28;20771;-70
2024/01/16 06:44:26;;;;;;;1.57;1.00;;;20.50;53.80;;;;;;5053225;28;20487;-68
2024/01/16 06:46:51;;;;;;;2.03;1.23;;;20.60;53.80;;;;;;5071423;28;20413;-69
2024/01/16 06:49:17;;;;;;;1.43;1.07;;;20.60;53.80;;;;;;5071283;28;20198;-69
2024/01/16 06:51:43;;;;;;;2.13;1.30;;;20.60;53.80;;;;;;5071219;28;20353;-70
2024/01/16 06:54:08;;;;;;;1.20;1.10;;;20.70;53.80;;;;;;5071398;28;20182;-69
2024/01/16 06:56:34;;;;;;;1.37;1.13;;;20.70;53.80;;;;;;5053244;28;20178;-69
2024/01/16 06:58:59;;;;;;;1.40;1.10;;;20.70;53.70;;;;;;5052758;28;20208;-68
2024/01/16 07:01:26;;;;;;;3.07;1.10;;;20.70;53.70;;;;;;5071089;28;20181;-70
2024/01/16 07:03:52;;;;;;;1.33;1.10;;;20.80;53.70;;;;;;5070881;28;20293;-67
2024/01/16 07:06:18;;;;;;;1.93;1.20;;;20.80;53.70;;;;;;5071113;28;20551;-69
2024/01/16 07:08:43;;;;;;;1.20;1.00;;;20.80;53.70;;;;;;5053124;28;20212;-70
2024/01/16 07:11:12;;;;;;;2.70;1.57;;;20.80;53.60;;;;;;5052968;28;20174;-68
2024/01/16 07:13:38;;;;;;;1.83;1.20;;;20.80;53.60;;;;;;5052943;28;20178;-69
2024/01/16 07:16:04;;;;;;;1.67;1.03;;;20.80;53.60;;;;;;5070881;28;20773;-69
2024/01/16 07:18:30;;;;;;;1.60;1.00;;;20.80;53.60;;;;;;5036065;28;20202;-69
2024/01/16 07:20:55;;;;;;;1.20;1.00;;;20.80;53.60;;;;;;5071285;28;20259;-69
2024/01/16 07:23:21;;;;;;;1.20;0.93;;;20.80;53.60;;;;;;5070707;28;20559;-69
2024/01/16 07:25:46;;;;;;;1.70;1.20;;;20.90;53.60;;;;;;5070823;28;20231;-70
2024/01/16 07:28:12;;;;;;;2.97;1.20;;;20.90;53.60;;;;;;5070979;28;20182;-70
2024/01/16 07:30:38;;;;;;;1.17;1.07;;;20.90;53.60;;;;;;5070682;28;20688;-69
2024/01/16 07:33:04;;;;;;;1.20;0.97;;;20.90;53.60;;;;;;5070614;28;20829;-68
2024/01/16 07:35:29;;;;;;;2.27;1.00;;;20.90;53.60;;;;;;5070728;28;20590;-69
2024/01/16 07:37:55;;;;;;;1.47;1.10;;;20.90;53.60;;;;;;5070247;28;20419;-66
2024/01/16 07:40:21;;;;;;;1.40;0.97;;;20.90;53.60;;;;;;5070819;28;20695;-68
2024/01/16 07:42:46;;;;;;;2.23;1.00;;;20.90;53.60;;;;;;5070840;28;20170;-69
2024/01/16 07:45:12;;;;;;;1.10;0.90;;;20.90;53.60;;;;;;5070649;28;20531;-68
2024/01/16 07:47:37;;;;;;;1.70;1.10;;;20.90;53.60;;;;;;5070579;28;20645;-68
2024/01/16 07:50:03;;;;;;;1.77;1.20;;;20.90;53.60;;;;;;5070553;28;20231;-67
2024/01/16 07:52:29;;;;;;;1.70;1.20;;;20.90;53.60;;;;;;5070460;28;20194;-69
2024/01/16 07:54:55;;;;;;;1.57;1.00;;;20.90;53.60;;;;;;5070417;28;20836;-69
2024/01/16 07:57:20;;;;;;;1.60;1.10;;;20.90;53.60;;;;;;5070462;28;20204;-69
2024/01/16 07:59:46;;;;;;;1.67;1.00;;;20.90;53.60;;;;;;5070371;28;20555;-70
2024/01/16 08:02:12;;;;;;;1.00;0.90;;;20.90;53.60;;;;;;5070401;28;20181;-69
2024/01/16 08:04:37;;;;;;;1.10;0.90;;;20.90;54.10;;;;;;5070523;28;20205;-70
2024/01/16 08:07:03;;;;;;;2.00;1.20;;;20.90;53.60;;;;;;5070340;28;20174;-69
2024/01/16 08:09:29;;;;;;;1.43;0.90;;;20.90;53.60;;;;;;5070405;28;20277;-67
2024/01/16 08:11:55;;;;;;;1.87;1.23;;;20.90;53.60;;;;;;5070218;28;20942;-69
2024/01/16 08:14:20;;;;;;;1.27;0.93;;;20.90;53.60;;;;;;5070423;28;20242;-69
2024/01/16 08:16:46;;;;;;;1.20;1.03;;;20.90;53.60;;;;;;5069358;28;20186;-69
2024/01/16 08:19:13;;;;;;;2.00;1.10;;;20.90;53.70;;;;;;5051571;28;20206;-68
2024/01/16 08:21:38;;;;;;;1.20;0.90;;;20.90;53.60;;;;;;5069517;28;20183;-68
2024/01/16 08:24:04;;;;;;;1.80;1.00;;;20.90;53.60;;;;;;5069388;28;20822;-69
2024/01/16 08:26:30;;;;;;;1.83;1.07;;;20.90;53.50;;;;;;5069495;28;20257;-69
2024/01/16 08:28:55;;;;;;;1.00;0.80;;;20.90;53.60;;;;;;5070214;28;20186;-69
2024/01/16 08:31:21;;;;;;;1.57;1.00;;;20.90;53.60;;;;;;5069440;28;20179;-69
2024/01/16 08:33:47;;;;;;;1.40;1.00;;;21.00;53.60;;;;;;5069497;28;20177;-69
2024/01/16 08:36:14;;;;;;;1.20;0.90;;;20.90;53.60;;;;;;5069931;28;20174;-68
2024/01/16 08:38:39;;;;;;;1.30;1.20;;;21.00;53.60;;;;;;5069708;28;20498;-67
2024/01/16 08:41:08;;;;;;;1.30;1.10;;;21.00;53.60;;;;;;5069530;28;20413;-67
2024/01/16 08:43:34;;;;;;;1.50;1.00;;;21.00;53.60;;;;;;5069215;28;20221;-69
2024/01/16 08:46:00;;;;;;;1.50;1.30;;;21.00;53.60;;;;;;5069459;28;20923;-69
2024/01/16 08:48:25;;;;;;;2.50;1.10;;;21.00;53.60;;;;;;5069086;28;20178;-69
2024/01/16 08:50:54;;;;;;;1.20;0.90;;;21.00;53.60;;;;;;5072431;28;20178;-68
2024/01/16 08:53:19;;;;;;;1.73;0.93;;;21.00;53.60;;;;;;5072755;28;20166;-70
2024/01/16 08:55:45;;;;;;;1.70;1.10;;;21.00;53.60;;;;;;5072817;28;20764;-68
2024/01/16 08:58:10;;;;;;;1.40;1.17;;;21.00;53.70;;;;;;5072683;28;20253;-69
2024/01/16 09:00:37;;;;;;;1.83;1.07;;;21.00;53.60;;;;;;5072607;28;20198;-69
2024/01/16 09:03:04;;;;;;;1.53;1.07;;;21.00;53.60;;;;;;5054509;28;20192;-68
2024/01/16 09:05:29;;;;;;;1.30;0.80;;;21.00;53.60;;;;;;5072505;28;20436;-70
2024/01/16 09:07:55;;;;;;;1.63;1.20;;;21.00;53.60;;;;;;5072548;28;20440;-69
2024/01/16 09:10:20;;;;;;;1.10;0.90;;;21.00;53.60;;;;;;5072452;28;20191;-69
2024/01/16 09:12:46;;;;;;;1.43;1.00;;;21.00;53.60;;;;;;5072492;28;20166;-69
2024/01/16 09:15:12;;;;;;;1.23;1.00;;;21.00;53.60;;;;;;5072325;28;20658;-69
2024/01/16 09:17:38;;;;;;;1.70;1.00;;;21.00;53.60;;;;;;5072431;28;20190;-69
2024/01/16 09:20:06;;;;;;;1.40;1.10;;;21.00;53.60;;;;;;5072289;28;20194;-70
2024/01/16 09:22:32;;;;;;;1.67;1.00;;;20.90;53.50;;;;;;5072215;28;20554;-71
2024/01/16 09:24:58;;;;;;;2.13;1.10;;;21.00;53.60;;;;;;5072117;28;20558;-70
2024/01/16 09:27:23;;;;;;;1.20;1.00;;;20.90;53.60;;;;;;5072094;28;20171;-69
2024/01/16 09:29:49;;;;;;;2.10;1.40;;;20.90;53.50;;;;;;5072027;28;20186;-71
2024/01/16 09:32:14;;;;;;;1.10;0.90;;;21.00;53.70;;;;;;5037431;28;20197;-70
2024/01/16 09:34:40;;;;;;;1.20;1.00;;;20.90;53.60;;;;;;5071947;28;20178;-70
2024/01/16 09:37:06;;;;;;;1.30;1.10;;;20.90;53.60;;;;;;5072202;28;20182;-70
2024/01/16 09:39:34;;;;;;;1.37;0.90;;;20.90;53.60;;;;;;5071789;28;20548;-69
2024/01/16 09:42:03;;;;;;;1.27;1.00;;;20.90;53.60;;;;;;5071913;28;20179;-70
2024/01/16 09:44:29;;;;;;;1.27;1.00;;;20.90;53.60;;;;;;5071756;28;20459;-71
2024/01/16 09:46:58;;;;;;;1.40;1.10;;;21.00;53.70;;;;;;5071790;28;20488;-69
2024/01/16 09:49:24;;;;;;;1.33;0.90;;;20.90;53.70;;;;;;5071523;28;20437;-70
2024/01/16 09:51:49;;;;;;;1.50;1.10;;;20.90;53.70;;;;;;5071671;28;20931;-71
2024/01/16 09:54:15;;;;;;;2.40;0.90;;;20.90;53.70;;;;;;5071847;28;20704;-70
2024/01/16 09:56:46;;;;;;;1.47;1.20;;;20.90;54.30;;;;;;5071608;28;20230;-71
2024/01/16 09:59:18;;;;;;;1.40;1.03;;;20.90;53.70;;;;;;5072103;28;20943;-70
2024/01/16 10:01:45;;;;;;;1.60;1.03;;;20.90;53.70;;;;;;5071394;28;20471;-68
2024/01/16 10:04:10;;;;;;;1.20;0.90;;;20.90;53.70;;;;;;5053430;28;20464;-70
2024/01/16 10:06:39;;;;;;;1.30;0.80;;;20.90;53.70;;;;;;5071465;28;20408;-71
2024/01/16 10:09:04;;;;;;;1.57;0.90;;;21.00;53.80;;;;;;5071486;28;20237;-70
2024/01/16 10:11:31;;;;;;;1.23;0.93;;;20.90;53.70;;;;;;5071222;28;20412;-70
2024/01/16 10:13:58;;;;;;;1.27;1.00;;;20.90;54.30;;;;;;5053156;28;20186;-69
2024/01/16 10:17:02;;;;;;;1.33;1.00;;;20.90;53.70;;;;;;5071160;28;20444;-69
2024/01/16 10:19:29;;;;;;;2.37;0.80;;;21.00;53.80;;;;;;5071188;28;20539;-70
2024/01/16 10:22:02;;;;;;;1.20;0.90;;;20.90;53.70;;;;;;5071113;28;20405;-68
2024/01/16 10:24:28;;;;;;;1.30;0.90;;;20.90;53.70;;;;;;5071054;28;20451;-71
2024/01/16 10:27:01;;;;;;;1.10;0.90;;;20.90;53.70;;;;;;5070987;28;20416;-70
2024/01/16 10:29:27;;;;;;;1.20;0.90;;;20.90;53.70;;;;;;5070938;28;20194;-70
2024/01/16 10:31:52;;;;;;;1.17;0.90;;;20.90;53.70;;;;;;5070953;28;20414;-68
2024/01/16 10:34:24;;;;;;;1.10;0.80;;;20.90;53.70;;;;;;5070873;28;20455;-70
2024/01/16 10:36:52;;;;;;;1.17;0.80;;;21.00;53.80;;;;;;5071062;28;20264;-70
2024/01/16 10:39:18;;;;;;;1.30;0.90;;;20.90;53.70;;;;;;5070782;28;20471;-70
2024/01/16 10:42:00;;;;;;;1.67;1.00;;;20.90;53.70;;;;;;5070992;28;20495;-70
2024/01/16 10:44:27;;;;;;;1.20;0.93;;;20.90;53.70;;;;;;5052626;28;20460;-71
2024/01/16 10:47:10;;;;;;;1.13;1.00;;;20.90;53.70;;;;;;5070602;28;20413;-68
2024/01/16 10:49:36;;;;;;;1.60;1.10;;;20.90;54.30;;;;;;5070665;28;20424;-70
2024/01/16 10:52:02;;;;;;;1.00;0.80;;;20.90;53.70;;;;;;5070927;28;20409;-70
2024/01/16 10:54:29;;;;;;;1.40;0.93;;;20.90;53.70;;;;;;5052865;28;20184;-68
2024/01/16 10:56:56;;;;;;;1.07;0.90;;;20.90;53.70;;;;;;5070800;28;20198;-70
2024/01/16 10:59:25;;;;;;;1.83;1.20;;;20.90;53.70;;;;;;5070493;28;20440;-70
2024/01/16 11:01:54;;;;;;;1.10;0.97;;;20.90;53.70;;;;;;5070465;28;20412;-70
2024/01/16 11:04:20;;;;;;;1.10;0.90;;;20.90;53.70;;;;;;5070457;28;21027;-70
2024/01/16 11:06:47;;;;;;;1.33;0.80;;;20.90;53.70;;;;;;5070458;28;20401;-70
2024/01/16 11:09:16;;;;;;;1.40;0.80;;;20.90;53.70;;;;;;5070409;28;21053;-70
2024/01/16 11:11:45;;;;;;;1.00;0.90;;;20.90;53.70;;;;;;5069652;28;20491;-70
2024/01/16 11:14:13;;;;;;;1.30;1.00;;;20.90;53.70;;;;;;5070495;28;20411;-71
2024/01/16 11:16:40;;;;;;;1.53;1.00;;;20.90;53.80;;;;;;5070151;28;20428;-70
2024/01/16 11:19:08;;;;;;;3.37;0.90;;;20.90;53.70;;;;;;5070177;28;20432;-71
2024/01/16 11:21:35;;;;;;;1.13;0.90;;;20.90;53.80;;;;;;5070014;28;20907;-71
2024/01/16 11:24:01;;;;;;;1.40;0.90;;;20.90;53.80;;;;;;5052110;28;20506;-71
2024/01/16 11:26:36;;;;;;;1.20;0.90;;;20.90;53.80;;;;;;5070106;28;20413;-69
2024/01/16 11:29:34;;;;;;;1.43;1.00;;;20.90;53.80;;;;;;5051998;28;20200;-70
2024/01/16 11:32:03;;;;;;;2.70;0.97;;;20.90;53.80;;;;;;5070136;28;20412;-72
2024/01/16 11:34:41;;;;;;;1.77;1.10;;;20.90;53.80;;;;;;5070117;28;20423;-70
2024/01/16 11:37:13;;;;;;;1.50;0.83;;;20.90;53.90;;;;;;5069976;28;20413;-71
2024/01/16 11:39:43;;;;;;;1.00;0.70;;;20.90;53.80;;;;;;5069951;28;20527;-72
2024/01/16 11:42:09;;;;;;;1.37;0.90;;;20.80;53.80;;;;;;5070000;28;20836;-71
2024/01/16 11:44:48;;;;;;;2.07;0.87;;;20.80;53.80;;;;;;5070185;28;20509;-71
2024/01/16 11:47:18;;;;;;;1.10;0.90;;;20.90;53.80;;;;;;5051804;28;20824;-70
2024/01/16 11:49:44;;;;;;;1.87;0.70;;;20.90;53.80;;;;;;5069840;28;20456;-71
2024/01/16 11:52:12;;;;;;;13.40;6.07;;;20.90;53.80;;;;;;5069964;28;20437;-71
2024/01/16 11:54:39;;;;;;;19.27;8.70;;;20.80;53.80;;;;;;5069999;28;20174;-71
2024/01/16 11:57:36;;;;;;;74.70;27.37;;;20.80;53.60;;;;;;5069935;28;20409;-70
2024/01/16 12:00:12;;;;;;;63.70;27.60;;;20.80;53.40;;;;;;5069745;28;20540;-70
2024/01/16 12:02:56;;;;;;;64.63;26.10;;;20.80;53.10;;;;;;5069928;28;20396;-71
2024/01/16 12:05:21;;;;;;;50.63;21.47;;;20.80;53.10;;;;;;5069812;28;20448;-71
2024/01/16 12:07:52;;;;;;;56.70;23.03;;;20.80;53.50;;;;;;5070103;28;20419;-71
2024/01/16 12:10:23;;;;;;;48.33;21.40;;;20.70;52.90;;;;;;5069683;28;20427;-71
2024/01/16 12:12:51;;;;;;;44.23;21.33;;;20.80;53.10;;;;;;5069812;28;20491;-71
2024/01/16 12:15:20;;;;;;;52.70;23.57;;;20.70;52.90;;;;;;5069865;28;20976;-71
2024/01/16 12:17:59;;;;;;;49.37;24.77;;;20.70;52.90;;;;;;5069672;28;20432;-72
2024/01/16 12:20:33;;;;;;;40.10;19.93;;;20.70;52.90;;;;;;5069935;28;20428;-70
2024/01/16 12:23:06;;;;;;;48.63;22.70;;;20.70;52.90;;;;;;5070360;28;20915;-71
2024/01/16 12:25:41;;;;;;;36.70;17.50;;;20.70;53.00;;;;;;5073508;28;20393;-71
2024/01/16 12:28:10;;;;;;;40.83;18.80;;;20.70;53.00;;;;;;5073463;28;20397;-71
2024/01/16 12:30:37;;;;;;;38.10;18.57;;;20.70;53.00;;;;;;5073593;28;20436;-71
2024/01/16 12:33:11;;;;;;;41.33;19.90;;;20.70;53.60;;;;;;5073320;28;20401;-70
2024/01/16 12:35:40;;;;;;;43.17;20.17;;;20.70;53.00;;;;;;5073283;28;20411;-71
2024/01/16 12:38:11;;;;;;;46.50;22.20;;;20.70;53.00;;;;;;5073431;28;20404;-69
2024/01/16 12:40:39;;;;;;;49.00;23.07;;;20.70;53.00;;;;;;5073155;28;20988;-70
2024/01/16 12:43:11;;;;;;;55.87;24.80;;;20.70;53.10;;;;;;5073105;28;20495;-71
2024/01/16 12:45:37;;;;;;;64.50;28.93;;;20.70;53.00;;;;;;5073054;28;20388;-71